sensor_id;sensor_type;location;lat;lon;timestamp;P1;durP1;ratioP1;P2;durP2;ratioP2
27804;SDS011;15183;51.350;11.102;2023-03-03T00:01:13;28.20;;;15.38;;
27804;SDS011;15183;51.350;11.102;2023-03-03T00:03:40;27.38;;;15.60;;
27804;SDS011;15183;51.350;11.102;2023-03-03T00:06:08;29.92;;;15.43;;
27804;SDS011;15183;51.350;11.102;2023-03-03T00:08:38;29.77;;;15.60;;
27804;SDS011;15183;51.350;11.102;2023-03-03T00:11:05;28.40;;;15.73;;
27804;SDS011;15183;51.350;11.102;2023-03-03T00:13:37;26.83;;;15.23;;
27804;SDS011;15183;51.350;11.102;2023-03-03T00:16:27;31.35;;;16.05;;
27804;SDS011;15183;51.350;11.102;2023-03-03T00:19:12;30.23;;;16.85;;
27804;SDS011;15183;51.350;11.102;2023-03-03T00:21:46;36.53;;;18.17;;
27804;SDS011;15183;51.350;11.102;2023-03-03T00:24:24;34.63;;;17.10;;
27804;SDS011;15183;51.350;11.102;2023-03-03T00:27:07;28.85;;;15.35;;
27804;SDS011;15183;51.350;11.102;2023-03-03T00:29:57;31.00;;;15.27;;
27804;SDS011;15183;51.350;11.102;2023-03-03T00:35:00;32.47;;;16.02;;
27804;SDS011;15183;51.350;11.102;2023-03-03T00:37:56;28.50;;;14.88;;
27804;SDS011;15183;51.350;11.102;2023-03-03T00:40:30;32.53;;;16.15;;
27804;SDS011;15183;51.350;11.102;2023-03-03T00:45:56;30.58;;;16.88;;
27804;SDS011;15183;51.350;11.102;2023-03-03T00:53:53;32.35;;;15.90;;
27804;SDS011;15183;51.350;11.102;2023-03-03T00:56:20;28.23;;;15.15;;
27804;SDS011;15183;51.350;11.102;2023-03-03T00:58:46;32.97;;;16.58;;
27804;SDS011;15183;51.350;11.102;2023-03-03T01:01:14;29.00;;;15.02;;
27804;SDS011;15183;51.350;11.102;2023-03-03T01:03:41;26.80;;;14.38;;
27804;SDS011;15183;51.350;11.102;2023-03-03T01:06:08;28.73;;;15.30;;
27804;SDS011;15183;51.350;11.102;2023-03-03T01:08:36;24.63;;;13.23;;
27804;SDS011;15183;51.350;11.102;2023-03-03T01:11:05;20.92;;;12.40;;
27804;SDS011;15183;51.350;11.102;2023-03-03T01:13:43;22.20;;;13.10;;
27804;SDS011;15183;51.350;11.102;2023-03-03T01:16:11;20.02;;;11.60;;
27804;SDS011;15183;51.350;11.102;2023-03-03T01:18:38;18.65;;;10.52;;
27804;SDS011;15183;51.350;11.102;2023-03-03T01:21:06;20.75;;;11.07;;
27804;SDS011;15183;51.350;11.102;2023-03-03T01:23:35;19.38;;;10.52;;
27804;SDS011;15183;51.350;11.102;2023-03-03T01:26:02;17.02;;;10.13;;
27804;SDS011;15183;51.350;11.102;2023-03-03T01:28:29;20.10;;;11.52;;
27804;SDS011;15183;51.350;11.102;2023-03-03T01:31:00;23.02;;;11.98;;
27804;SDS011;15183;51.350;11.102;2023-03-03T01:33:28;18.05;;;10.40;;
27804;SDS011;15183;51.350;11.102;2023-03-03T01:35:56;18.45;;;11.07;;
27804;SDS011;15183;51.350;11.102;2023-03-03T01:38:23;20.13;;;10.45;;
27804;SDS011;15183;51.350;11.102;2023-03-03T01:40:53;20.15;;;10.65;;
27804;SDS011;15183;51.350;11.102;2023-03-03T01:43:21;18.30;;;10.98;;
27804;SDS011;15183;51.350;11.102;2023-03-03T01:48:15;19.63;;;11.68;;
27804;SDS011;15183;51.350;11.102;2023-03-03T01:51:26;20.38;;;11.60;;
27804;SDS011;15183;51.350;11.102;2023-03-03T01:54:17;18.88;;;11.32;;
27804;SDS011;15183;51.350;11.102;2023-03-03T01:56:50;21.38;;;10.77;;
27804;SDS011;15183;51.350;11.102;2023-03-03T01:59:23;20.20;;;11.20;;
27804;SDS011;15183;51.350;11.102;2023-03-03T02:01:56;18.55;;;10.77;;
27804;SDS011;15183;51.350;11.102;2023-03-03T02:04:23;20.90;;;11.07;;
27804;SDS011;15183;51.350;11.102;2023-03-03T02:06:53;17.08;;;10.23;;
27804;SDS011;15183;51.350;11.102;2023-03-03T02:09:45;16.30;;;9.85;;
27804;SDS011;15183;51.350;11.102;2023-03-03T02:12:25;18.55;;;10.85;;
27804;SDS011;15183;51.350;11.102;2023-03-03T02:15:14;16.33;;;9.30;;
27804;SDS011;15183;51.350;11.102;2023-03-03T02:17:44;16.23;;;9.55;;
27804;SDS011;15183;51.350;11.102;2023-03-03T02:20:19;18.63;;;11.27;;
27804;SDS011;15183;51.350;11.102;2023-03-03T02:26:09;18.40;;;10.75;;
27804;SDS011;15183;51.350;11.102;2023-03-03T02:28:41;17.67;;;10.48;;
27804;SDS011;15183;51.350;11.102;2023-03-03T02:31:12;17.42;;;10.60;;
27804;SDS011;15183;51.350;11.102;2023-03-03T02:33:42;17.33;;;10.02;;
27804;SDS011;15183;51.350;11.102;2023-03-03T02:36:13;18.58;;;9.80;;
27804;SDS011;15183;51.350;11.102;2023-03-03T02:39:04;16.98;;;10.35;;
27804;SDS011;15183;51.350;11.102;2023-03-03T02:42:03;18.13;;;10.13;;
27804;SDS011;15183;51.350;11.102;2023-03-03T02:44:59;18.70;;;10.57;;
27804;SDS011;15183;51.350;11.102;2023-03-03T02:47:25;16.88;;;9.95;;
27804;SDS011;15183;51.350;11.102;2023-03-03T02:49:52;17.05;;;10.07;;
27804;SDS011;15183;51.350;11.102;2023-03-03T02:52:18;14.95;;;8.98;;
27804;SDS011;15183;51.350;11.102;2023-03-03T02:54:44;14.90;;;8.80;;
27804;SDS011;15183;51.350;11.102;2023-03-03T02:57:11;13.25;;;8.80;;
27804;SDS011;15183;51.350;11.102;2023-03-03T02:59:38;16.20;;;9.52;;
27804;SDS011;15183;51.350;11.102;2023-03-03T03:02:04;16.60;;;9.02;;
27804;SDS011;15183;51.350;11.102;2023-03-03T03:04:32;15.52;;;9.18;;
27804;SDS011;15183;51.350;11.102;2023-03-03T03:06:58;16.00;;;8.88;;
27804;SDS011;15183;51.350;11.102;2023-03-03T03:09:28;14.57;;;8.90;;
27804;SDS011;15183;51.350;11.102;2023-03-03T03:11:54;15.02;;;9.38;;
27804;SDS011;15183;51.350;11.102;2023-03-03T03:14:20;15.95;;;9.63;;
27804;SDS011;15183;51.350;11.102;2023-03-03T03:16:48;16.23;;;9.60;;
27804;SDS011;15183;51.350;11.102;2023-03-03T03:19:14;15.68;;;9.40;;
27804;SDS011;15183;51.350;11.102;2023-03-03T03:21:41;19.05;;;10.40;;
27804;SDS011;15183;51.350;11.102;2023-03-03T03:24:07;18.67;;;10.88;;
27804;SDS011;15183;51.350;11.102;2023-03-03T03:26:34;17.40;;;9.27;;
27804;SDS011;15183;51.350;11.102;2023-03-03T03:29:00;19.30;;;11.00;;
27804;SDS011;15183;51.350;11.102;2023-03-03T03:31:27;17.23;;;10.13;;
27804;SDS011;15183;51.350;11.102;2023-03-03T03:33:53;17.38;;;10.52;;
27804;SDS011;15183;51.350;11.102;2023-03-03T03:36:20;19.33;;;10.38;;
27804;SDS011;15183;51.350;11.102;2023-03-03T03:38:46;18.88;;;10.63;;
27804;SDS011;15183;51.350;11.102;2023-03-03T03:41:13;16.77;;;10.07;;
27804;SDS011;15183;51.350;11.102;2023-03-03T03:43:39;16.67;;;10.38;;
27804;SDS011;15183;51.350;11.102;2023-03-03T03:46:06;18.75;;;10.93;;
27804;SDS011;15183;51.350;11.102;2023-03-03T03:48:33;18.33;;;11.27;;
27804;SDS011;15183;51.350;11.102;2023-03-03T03:51:00;19.55;;;11.55;;
27804;SDS011;15183;51.350;11.102;2023-03-03T03:53:26;17.42;;;10.02;;
27804;SDS011;15183;51.350;11.102;2023-03-03T03:55:53;20.35;;;11.43;;
27804;SDS011;15183;51.350;11.102;2023-03-03T03:58:19;18.88;;;10.73;;
27804;SDS011;15183;51.350;11.102;2023-03-03T04:00:46;18.67;;;10.88;;
27804;SDS011;15183;51.350;11.102;2023-03-03T04:03:13;15.80;;;10.18;;
27804;SDS011;15183;51.350;11.102;2023-03-03T04:05:40;17.02;;;9.52;;
27804;SDS011;15183;51.350;11.102;2023-03-03T04:08:06;17.75;;;10.20;;
27804;SDS011;15183;51.350;11.102;2023-03-03T04:10:33;18.65;;;10.20;;
27804;SDS011;15183;51.350;11.102;2023-03-03T04:13:00;17.55;;;10.73;;
27804;SDS011;15183;51.350;11.102;2023-03-03T04:15:26;17.02;;;10.52;;
27804;SDS011;15183;51.350;11.102;2023-03-03T04:17:53;15.18;;;10.32;;
27804;SDS011;15183;51.350;11.102;2023-03-03T04:20:19;16.67;;;9.98;;
27804;SDS011;15183;51.350;11.102;2023-03-03T04:22:45;17.67;;;10.02;;
27804;SDS011;15183;51.350;11.102;2023-03-03T04:25:13;17.15;;;9.63;;
27804;SDS011;15183;51.350;11.102;2023-03-03T04:27:42;16.67;;;9.93;;
27804;SDS011;15183;51.350;11.102;2023-03-03T04:30:09;16.67;;;10.23;;
27804;SDS011;15183;51.350;11.102;2023-03-03T04:32:37;17.25;;;9.88;;
27804;SDS011;15183;51.350;11.102;2023-03-03T04:35:04;11.43;;;7.45;;
27804;SDS011;15183;51.350;11.102;2023-03-03T04:37:31;13.07;;;8.07;;
27804;SDS011;15183;51.350;11.102;2023-03-03T04:39:58;12.68;;;7.80;;
27804;SDS011;15183;51.350;11.102;2023-03-03T04:42:24;11.73;;;6.97;;
27804;SDS011;15183;51.350;11.102;2023-03-03T04:44:52;12.20;;;7.20;;
27804;SDS011;15183;51.350;11.102;2023-03-03T04:47:19;12.43;;;6.95;;
27804;SDS011;15183;51.350;11.102;2023-03-03T04:49:45;12.50;;;7.95;;
27804;SDS011;15183;51.350;11.102;2023-03-03T04:52:11;11.05;;;7.13;;
27804;SDS011;15183;51.350;11.102;2023-03-03T04:54:38;11.55;;;6.63;;
27804;SDS011;15183;51.350;11.102;2023-03-03T04:57:04;10.02;;;6.30;;
27804;SDS011;15183;51.350;11.102;2023-03-03T04:59:32;10.82;;;6.90;;
27804;SDS011;15183;51.350;11.102;2023-03-03T05:01:58;10.45;;;7.13;;
27804;SDS011;15183;51.350;11.102;2023-03-03T05:04:25;12.10;;;7.13;;
27804;SDS011;15183;51.350;11.102;2023-03-03T05:06:51;10.23;;;6.50;;
27804;SDS011;15183;51.350;11.102;2023-03-03T05:09:18;11.18;;;6.57;;
27804;SDS011;15183;51.350;11.102;2023-03-03T05:11:44;12.73;;;7.00;;
27804;SDS011;15183;51.350;11.102;2023-03-03T05:14:10;12.02;;;6.95;;
27804;SDS011;15183;51.350;11.102;2023-03-03T05:16:37;9.68;;;6.15;;
27804;SDS011;15183;51.350;11.102;2023-03-03T05:19:03;9.93;;;6.25;;
27804;SDS011;15183;51.350;11.102;2023-03-03T05:21:30;10.18;;;6.15;;
27804;SDS011;15183;51.350;11.102;2023-03-03T05:23:56;12.88;;;7.45;;
27804;SDS011;15183;51.350;11.102;2023-03-03T05:26:22;10.50;;;6.45;;
27804;SDS011;15183;51.350;11.102;2023-03-03T05:28:49;10.00;;;6.95;;
27804;SDS011;15183;51.350;11.102;2023-03-03T05:31:15;11.23;;;7.28;;
27804;SDS011;15183;51.350;11.102;2023-03-03T05:33:42;10.98;;;7.00;;
27804;SDS011;15183;51.350;11.102;2023-03-03T05:36:08;10.25;;;6.40;;
27804;SDS011;15183;51.350;11.102;2023-03-03T05:38:35;7.32;;;5.30;;
27804;SDS011;15183;51.350;11.102;2023-03-03T05:41:01;7.40;;;4.60;;
27804;SDS011;15183;51.350;11.102;2023-03-03T05:43:28;8.18;;;5.95;;
27804;SDS011;15183;51.350;11.102;2023-03-03T05:45:54;8.77;;;5.97;;
27804;SDS011;15183;51.350;11.102;2023-03-03T05:48:23;7.93;;;5.50;;
27804;SDS011;15183;51.350;11.102;2023-03-03T05:50:49;8.57;;;5.38;;
27804;SDS011;15183;51.350;11.102;2023-03-03T05:53:15;6.53;;;4.60;;
27804;SDS011;15183;51.350;11.102;2023-03-03T05:55:42;8.10;;;5.78;;
27804;SDS011;15183;51.350;11.102;2023-03-03T05:58:08;9.95;;;5.82;;
27804;SDS011;15183;51.350;11.102;2023-03-03T06:00:36;7.68;;;5.22;;
27804;SDS011;15183;51.350;11.102;2023-03-03T06:03:03;7.53;;;5.35;;
27804;SDS011;15183;51.350;11.102;2023-03-03T06:05:29;7.97;;;5.43;;
27804;SDS011;15183;51.350;11.102;2023-03-03T06:07:56;7.38;;;5.28;;
27804;SDS011;15183;51.350;11.102;2023-03-03T06:10:22;8.00;;;5.75;;
27804;SDS011;15183;51.350;11.102;2023-03-03T06:12:49;8.48;;;5.80;;
27804;SDS011;15183;51.350;11.102;2023-03-03T06:15:17;8.20;;;4.93;;
27804;SDS011;15183;51.350;11.102;2023-03-03T06:17:44;7.57;;;5.38;;
27804;SDS011;15183;51.350;11.102;2023-03-03T06:20:10;8.57;;;5.38;;
27804;SDS011;15183;51.350;11.102;2023-03-03T06:22:36;8.40;;;5.90;;
27804;SDS011;15183;51.350;11.102;2023-03-03T06:25:03;6.35;;;4.60;;
27804;SDS011;15183;51.350;11.102;2023-03-03T06:27:30;6.78;;;4.97;;
27804;SDS011;15183;51.350;11.102;2023-03-03T06:29:56;7.82;;;4.95;;
27804;SDS011;15183;51.350;11.102;2023-03-03T06:32:22;6.82;;;5.13;;
27804;SDS011;15183;51.350;11.102;2023-03-03T06:34:49;6.50;;;4.88;;
27804;SDS011;15183;51.350;11.102;2023-03-03T06:37:15;8.32;;;4.65;;
27804;SDS011;15183;51.350;11.102;2023-03-03T06:39:42;7.35;;;5.10;;
27804;SDS011;15183;51.350;11.102;2023-03-03T06:42:08;8.20;;;5.70;;
27804;SDS011;15183;51.350;11.102;2023-03-03T06:44:37;7.00;;;4.93;;
27804;SDS011;15183;51.350;11.102;2023-03-03T06:47:11;8.43;;;5.68;;
27804;SDS011;15183;51.350;11.102;2023-03-03T06:49:38;11.90;;;6.20;;
27804;SDS011;15183;51.350;11.102;2023-03-03T06:52:09;10.93;;;6.50;;
27804;SDS011;15183;51.350;11.102;2023-03-03T06:54:43;8.45;;;5.57;;
27804;SDS011;15183;51.350;11.102;2023-03-03T06:57:17;13.43;;;8.40;;
27804;SDS011;15183;51.350;11.102;2023-03-03T06:59:56;7.35;;;5.70;;
27804;SDS011;15183;51.350;11.102;2023-03-03T07:02:42;11.00;;;6.20;;
27804;SDS011;15183;51.350;11.102;2023-03-03T07:05:09;13.27;;;7.75;;
27804;SDS011;15183;51.350;11.102;2023-03-03T07:07:41;11.27;;;6.72;;
27804;SDS011;15183;51.350;11.102;2023-03-03T07:10:19;11.43;;;7.63;;
27804;SDS011;15183;51.350;11.102;2023-03-03T07:12:50;9.68;;;5.90;;
27804;SDS011;15183;51.350;11.102;2023-03-03T07:15:21;7.65;;;5.57;;
27804;SDS011;15183;51.350;11.102;2023-03-03T07:17:54;9.85;;;6.32;;
27804;SDS011;15183;51.350;11.102;2023-03-03T07:26:20;10.38;;;6.13;;
27804;SDS011;15183;51.350;11.102;2023-03-03T07:28:57;8.10;;;5.05;;
27804;SDS011;15183;51.350;11.102;2023-03-03T07:31:44;7.80;;;5.15;;
27804;SDS011;15183;51.350;11.102;2023-03-03T07:34:20;5.72;;;4.63;;
27804;SDS011;15183;51.350;11.102;2023-03-03T07:36:56;7.55;;;4.75;;
27804;SDS011;15183;51.350;11.102;2023-03-03T07:39:39;7.88;;;5.22;;
27804;SDS011;15183;51.350;11.102;2023-03-03T07:42:20;5.88;;;4.38;;
27804;SDS011;15183;51.350;11.102;2023-03-03T07:44:56;7.60;;;5.03;;
27804;SDS011;15183;51.350;11.102;2023-03-03T07:47:26;5.50;;;4.53;;
27804;SDS011;15183;51.350;11.102;2023-03-03T07:50:00;9.75;;;5.20;;
27804;SDS011;15183;51.350;11.102;2023-03-03T07:52:45;6.30;;;4.30;;
27804;SDS011;15183;51.350;11.102;2023-03-03T07:55:34;7.88;;;4.43;;
27804;SDS011;15183;51.350;11.102;2023-03-03T08:04:15;6.65;;;4.93;;
27804;SDS011;15183;51.350;11.102;2023-03-03T08:07:13;6.07;;;4.20;;
27804;SDS011;15183;51.350;11.102;2023-03-03T08:09:45;6.22;;;4.40;;
27804;SDS011;15183;51.350;11.102;2023-03-03T08:14:55;9.38;;;6.20;;
27804;SDS011;15183;51.350;11.102;2023-03-03T08:17:41;7.90;;;5.72;;
27804;SDS011;15183;51.350;11.102;2023-03-03T08:23:15;9.15;;;6.22;;
27804;SDS011;15183;51.350;11.102;2023-03-03T08:25:46;14.77;;;8.10;;
27804;SDS011;15183;51.350;11.102;2023-03-03T08:28:26;8.90;;;6.30;;
27804;SDS011;15183;51.350;11.102;2023-03-03T08:30:53;14.57;;;9.60;;
27804;SDS011;15183;51.350;11.102;2023-03-03T08:33:19;9.57;;;6.97;;
27804;SDS011;15183;51.350;11.102;2023-03-03T08:35:46;12.98;;;8.40;;
27804;SDS011;15183;51.350;11.102;2023-03-03T08:38:14;16.48;;;9.70;;
27804;SDS011;15183;51.350;11.102;2023-03-03T08:40:46;15.65;;;9.18;;
27804;SDS011;15183;51.350;11.102;2023-03-03T08:43:14;14.90;;;8.32;;
27804;SDS011;15183;51.350;11.102;2023-03-03T08:45:46;9.82;;;6.55;;
27804;SDS011;15183;51.350;11.102;2023-03-03T08:48:15;21.38;;;13.52;;
27804;SDS011;15183;51.350;11.102;2023-03-03T08:50:42;11.55;;;7.10;;
27804;SDS011;15183;51.350;11.102;2023-03-03T08:53:09;6.75;;;5.15;;
27804;SDS011;15183;51.350;11.102;2023-03-03T08:55:38;8.35;;;5.25;;
27804;SDS011;15183;51.350;11.102;2023-03-03T09:01:05;15.27;;;9.70;;
27804;SDS011;15183;51.350;11.102;2023-03-03T09:03:34;9.90;;;6.28;;
27804;SDS011;15183;51.350;11.102;2023-03-03T09:06:00;17.95;;;9.82;;
27804;SDS011;15183;51.350;11.102;2023-03-03T09:08:27;14.20;;;8.55;;
27804;SDS011;15183;51.350;11.102;2023-03-03T09:10:53;13.05;;;6.97;;
27804;SDS011;15183;51.350;11.102;2023-03-03T09:13:22;13.77;;;7.47;;
27804;SDS011;15183;51.350;11.102;2023-03-03T09:16:12;23.55;;;13.45;;
27804;SDS011;15183;51.350;11.102;2023-03-03T09:18:40;19.73;;;12.43;;
27804;SDS011;15183;51.350;11.102;2023-03-03T09:21:19;15.57;;;9.68;;
27804;SDS011;15183;51.350;11.102;2023-03-03T09:23:53;14.93;;;9.10;;
27804;SDS011;15183;51.350;11.102;2023-03-03T09:31:58;25.17;;;13.57;;
27804;SDS011;15183;51.350;11.102;2023-03-03T09:37:17;20.85;;;11.63;;
27804;SDS011;15183;51.350;11.102;2023-03-03T09:40:01;25.45;;;15.35;;
27804;SDS011;15183;51.350;11.102;2023-03-03T09:43:17;15.43;;;10.00;;
27804;SDS011;15183;51.350;11.102;2023-03-03T09:46:28;12.65;;;8.32;;
27804;SDS011;15183;51.350;11.102;2023-03-03T09:49:26;11.98;;;7.53;;
27804;SDS011;15183;51.350;11.102;2023-03-03T09:52:10;13.60;;;8.10;;
27804;SDS011;15183;51.350;11.102;2023-03-03T09:55:02;13.20;;;8.40;;
27804;SDS011;15183;51.350;11.102;2023-03-03T09:57:33;10.77;;;6.65;;
27804;SDS011;15183;51.350;11.102;2023-03-03T10:00:39;21.42;;;12.18;;
27804;SDS011;15183;51.350;11.102;2023-03-03T10:03:49;23.02;;;13.77;;
27804;SDS011;15183;51.350;11.102;2023-03-03T10:15:36;22.48;;;12.48;;
27804;SDS011;15183;51.350;11.102;2023-03-03T10:18:46;21.58;;;11.75;;
27804;SDS011;15183;51.350;11.102;2023-03-03T10:23:54;37.50;;;21.75;;
27804;SDS011;15183;51.350;11.102;2023-03-03T10:32:39;17.08;;;10.57;;
27804;SDS011;15183;51.350;11.102;2023-03-03T10:35:38;27.02;;;16.27;;
27804;SDS011;15183;51.350;11.102;2023-03-03T10:38:24;21.60;;;13.18;;
27804;SDS011;15183;51.350;11.102;2023-03-03T10:47:30;31.27;;;18.48;;
27804;SDS011;15183;51.350;11.102;2023-03-03T10:56:06;25.08;;;15.63;;
27804;SDS011;15183;51.350;11.102;2023-03-03T10:58:56;27.02;;;15.88;;
27804;SDS011;15183;51.350;11.102;2023-03-03T11:01:52;23.92;;;13.88;;
27804;SDS011;15183;51.350;11.102;2023-03-03T11:07:56;18.75;;;12.23;;
27804;SDS011;15183;51.350;11.102;2023-03-03T11:13:18;23.20;;;14.38;;
27804;SDS011;15183;51.350;11.102;2023-03-03T11:16:19;24.63;;;14.77;;
27804;SDS011;15183;51.350;11.102;2023-03-03T11:22:15;26.63;;;14.95;;
27804;SDS011;15183;51.350;11.102;2023-03-03T11:31:36;15.23;;;10.10;;
27804;SDS011;15183;51.350;11.102;2023-03-03T11:37:42;33.50;;;19.13;;
27804;SDS011;15183;51.350;11.102;2023-03-03T11:40:44;34.60;;;18.98;;
27804;SDS011;15183;51.350;11.102;2023-03-03T11:43:26;21.30;;;14.00;;
27804;SDS011;15183;51.350;11.102;2023-03-03T11:49:01;18.83;;;10.82;;
27804;SDS011;15183;51.350;11.102;2023-03-03T11:51:45;27.40;;;17.42;;
27804;SDS011;15183;51.350;11.102;2023-03-03T11:54:56;24.08;;;13.90;;
27804;SDS011;15183;51.350;11.102;2023-03-03T12:03:26;49.92;;;28.88;;
27804;SDS011;15183;51.350;11.102;2023-03-03T12:06:24;66.37;;;37.10;;
27804;SDS011;15183;51.350;11.102;2023-03-03T12:09:18;76.07;;;40.92;;
27804;SDS011;15183;51.350;11.102;2023-03-03T12:12:23;36.17;;;22.10;;
27804;SDS011;15183;51.350;11.102;2023-03-03T12:15:21;30.80;;;19.02;;
27804;SDS011;15183;51.350;11.102;2023-03-03T12:21:00;54.67;;;30.88;;
27804;SDS011;15183;51.350;11.102;2023-03-03T12:23:52;68.85;;;33.20;;
27804;SDS011;15183;51.350;11.102;2023-03-03T12:27:22;44.88;;;26.27;;
27804;SDS011;15183;51.350;11.102;2023-03-03T12:30:06;48.58;;;27.70;;
27804;SDS011;15183;51.350;11.102;2023-03-03T12:32:56;55.63;;;31.70;;
27804;SDS011;15183;51.350;11.102;2023-03-03T12:36:00;43.60;;;25.73;;
27804;SDS011;15183;51.350;11.102;2023-03-03T12:44:37;34.17;;;21.00;;
27804;SDS011;15183;51.350;11.102;2023-03-03T12:47:29;42.05;;;24.27;;
27804;SDS011;15183;51.350;11.102;2023-03-03T12:50:13;49.67;;;29.15;;
27804;SDS011;15183;51.350;11.102;2023-03-03T12:56:24;44.83;;;26.83;;
27804;SDS011;15183;51.350;11.102;2023-03-03T12:59:18;30.23;;;15.90;;
27804;SDS011;15183;51.350;11.102;2023-03-03T13:05:17;36.10;;;20.60;;
27804;SDS011;15183;51.350;11.102;2023-03-03T13:13:26;20.58;;;12.13;;
27804;SDS011;15183;51.350;11.102;2023-03-03T13:16:20;26.27;;;15.32;;
27804;SDS011;15183;51.350;11.102;2023-03-03T13:19:06;30.35;;;18.40;;
27804;SDS011;15183;51.350;11.102;2023-03-03T13:21:46;28.38;;;17.25;;
27804;SDS011;15183;51.350;11.102;2023-03-03T13:24:25;34.72;;;20.27;;
27804;SDS011;15183;51.350;11.102;2023-03-03T13:27:10;29.58;;;16.40;;
27804;SDS011;15183;51.350;11.102;2023-03-03T13:32:34;31.60;;;19.38;;
27804;SDS011;15183;51.350;11.102;2023-03-03T13:35:23;34.60;;;21.45;;
27804;SDS011;15183;51.350;11.102;2023-03-03T13:37:58;31.30;;;19.17;;
27804;SDS011;15183;51.350;11.102;2023-03-03T13:40:38;41.08;;;24.80;;
27804;SDS011;15183;51.350;11.102;2023-03-03T13:43:29;26.23;;;17.20;;
27804;SDS011;15183;51.350;11.102;2023-03-03T13:46:26;31.88;;;20.02;;
27804;SDS011;15183;51.350;11.102;2023-03-03T13:49:34;25.83;;;15.73;;
27804;SDS011;15183;51.350;11.102;2023-03-03T13:52:14;30.08;;;17.95;;
27804;SDS011;15183;51.350;11.102;2023-03-03T13:55:05;31.27;;;19.13;;
27804;SDS011;15183;51.350;11.102;2023-03-03T13:57:57;31.08;;;18.40;;
27804;SDS011;15183;51.350;11.102;2023-03-03T14:00:49;23.45;;;14.02;;
27804;SDS011;15183;51.350;11.102;2023-03-03T14:06:13;29.67;;;17.77;;
27804;SDS011;15183;51.350;11.102;2023-03-03T14:08:49;32.83;;;19.10;;
27804;SDS011;15183;51.350;11.102;2023-03-03T14:11:45;31.88;;;19.63;;
27804;SDS011;15183;51.350;11.102;2023-03-03T14:20:10;26.63;;;15.80;;
27804;SDS011;15183;51.350;11.102;2023-03-03T14:22:53;17.90;;;11.95;;
27804;SDS011;15183;51.350;11.102;2023-03-03T14:28:37;20.33;;;12.50;;
27804;SDS011;15183;51.350;11.102;2023-03-03T14:31:15;34.78;;;20.88;;
27804;SDS011;15183;51.350;11.102;2023-03-03T14:34:02;13.80;;;9.68;;
27804;SDS011;15183;51.350;11.102;2023-03-03T14:36:47;22.85;;;13.88;;
27804;SDS011;15183;51.350;11.102;2023-03-03T14:39:31;30.38;;;17.52;;
27804;SDS011;15183;51.350;11.102;2023-03-03T14:42:01;29.52;;;18.35;;
27804;SDS011;15183;51.350;11.102;2023-03-03T14:44:54;19.98;;;12.55;;
27804;SDS011;15183;51.350;11.102;2023-03-03T14:47:24;21.92;;;13.90;;
27804;SDS011;15183;51.350;11.102;2023-03-03T14:49:54;20.23;;;12.48;;
27804;SDS011;15183;51.350;11.102;2023-03-03T14:52:26;23.52;;;14.25;;
27804;SDS011;15183;51.350;11.102;2023-03-03T14:54:58;16.88;;;10.70;;
27804;SDS011;15183;51.350;11.102;2023-03-03T14:57:46;22.20;;;13.82;;
27804;SDS011;15183;51.350;11.102;2023-03-03T15:05:17;23.63;;;14.43;;
27804;SDS011;15183;51.350;11.102;2023-03-03T15:21:54;9.40;;;6.35;;
27804;SDS011;15183;51.350;11.102;2023-03-03T15:24:48;24.83;;;15.70;;
27804;SDS011;15183;51.350;11.102;2023-03-03T15:27:29;17.90;;;11.23;;
27804;SDS011;15183;51.350;11.102;2023-03-03T15:32:58;15.05;;;9.13;;
27804;SDS011;15183;51.350;11.102;2023-03-03T15:35:53;17.98;;;10.80;;
27804;SDS011;15183;51.350;11.102;2023-03-03T15:41:53;12.98;;;8.90;;
27804;SDS011;15183;51.350;11.102;2023-03-03T15:44:55;13.80;;;8.05;;
27804;SDS011;15183;51.350;11.102;2023-03-03T15:48:03;15.95;;;9.77;;
27804;SDS011;15183;51.350;11.102;2023-03-03T15:50:47;14.55;;;9.85;;
27804;SDS011;15183;51.350;11.102;2023-03-03T15:59:49;12.32;;;8.18;;
27804;SDS011;15183;51.350;11.102;2023-03-03T16:02:57;13.93;;;8.38;;
27804;SDS011;15183;51.350;11.102;2023-03-03T16:05:42;14.43;;;9.00;;
27804;SDS011;15183;51.350;11.102;2023-03-03T16:08:31;11.98;;;8.05;;
27804;SDS011;15183;51.350;11.102;2023-03-03T16:12:13;17.60;;;9.43;;
27804;SDS011;15183;51.350;11.102;2023-03-03T16:14:58;16.40;;;10.32;;
27804;SDS011;15183;51.350;11.102;2023-03-03T16:17:57;19.73;;;11.88;;
27804;SDS011;15183;51.350;11.102;2023-03-03T16:23:42;19.65;;;12.40;;
27804;SDS011;15183;51.350;11.102;2023-03-03T16:26:14;19.70;;;12.27;;
27804;SDS011;15183;51.350;11.102;2023-03-03T16:32:39;18.73;;;11.70;;
27804;SDS011;15183;51.350;11.102;2023-03-03T16:35:25;20.45;;;11.60;;
27804;SDS011;15183;51.350;11.102;2023-03-03T16:38:23;23.80;;;13.93;;
27804;SDS011;15183;51.350;11.102;2023-03-03T16:41:00;23.60;;;13.40;;
27804;SDS011;15183;51.350;11.102;2023-03-03T16:43:40;19.65;;;11.43;;
27804;SDS011;15183;51.350;11.102;2023-03-03T16:46:39;21.13;;;12.65;;
27804;SDS011;15183;51.350;11.102;2023-03-03T16:49:16;19.98;;;11.88;;
27804;SDS011;15183;51.350;11.102;2023-03-03T16:52:06;21.33;;;11.57;;
27804;SDS011;15183;51.350;11.102;2023-03-03T17:00:59;21.45;;;12.63;;
27804;SDS011;15183;51.350;11.102;2023-03-03T17:04:01;20.42;;;11.63;;
27804;SDS011;15183;51.350;11.102;2023-03-03T17:07:02;19.55;;;12.43;;
27804;SDS011;15183;51.350;11.102;2023-03-03T17:12:47;22.42;;;12.73;;
27804;SDS011;15183;51.350;11.102;2023-03-03T17:15:44;24.58;;;13.18;;
27804;SDS011;15183;51.350;11.102;2023-03-03T17:21:36;26.98;;;14.43;;
27804;SDS011;15183;51.350;11.102;2023-03-03T17:24:30;23.77;;;14.07;;
27804;SDS011;15183;51.350;11.102;2023-03-03T17:33:08;28.00;;;15.65;;
27804;SDS011;15183;51.350;11.102;2023-03-03T17:44:52;27.83;;;15.40;;
27804;SDS011;15183;51.350;11.102;2023-03-03T17:56:02;27.15;;;15.80;;
27804;SDS011;15183;51.350;11.102;2023-03-03T18:02:04;30.88;;;16.23;;
27804;SDS011;15183;51.350;11.102;2023-03-03T18:22:51;28.08;;;15.35;;
27804;SDS011;15183;51.350;11.102;2023-03-03T18:25:23;28.48;;;15.30;;
27804;SDS011;15183;51.350;11.102;2023-03-03T18:28:15;27.40;;;16.08;;
27804;SDS011;15183;51.350;11.102;2023-03-03T18:30:56;25.85;;;15.30;;
27804;SDS011;15183;51.350;11.102;2023-03-03T18:33:31;25.92;;;15.43;;
27804;SDS011;15183;51.350;11.102;2023-03-03T18:38:52;31.80;;;16.98;;
27804;SDS011;15183;51.350;11.102;2023-03-03T18:41:22;28.50;;;16.65;;
27804;SDS011;15183;51.350;11.102;2023-03-03T18:44:01;25.48;;;15.18;;
27804;SDS011;15183;51.350;11.102;2023-03-03T18:46:48;26.45;;;15.98;;
27804;SDS011;15183;51.350;11.102;2023-03-03T18:49:16;28.92;;;16.60;;
27804;SDS011;15183;51.350;11.102;2023-03-03T18:52:15;29.13;;;16.20;;
27804;SDS011;15183;51.350;11.102;2023-03-03T18:55:00;29.75;;;16.10;;
27804;SDS011;15183;51.350;11.102;2023-03-03T18:58:21;28.73;;;15.52;;
27804;SDS011;15183;51.350;11.102;2023-03-03T19:01:00;27.98;;;14.55;;
27804;SDS011;15183;51.350;11.102;2023-03-03T19:06:27;28.88;;;15.52;;
27804;SDS011;15183;51.350;11.102;2023-03-03T19:09:42;30.45;;;15.48;;
27804;SDS011;15183;51.350;11.102;2023-03-03T19:12:52;29.35;;;14.32;;
27804;SDS011;15183;51.350;11.102;2023-03-03T19:17:58;26.67;;;15.02;;